sensor_id;sensor_type;location;lat;lon;timestamp;temperature;humidity
68719;DHT22;55696;52.138;5.444;2023-04-29T00:00:10;13.30;70.90
68719;DHT22;55696;52.138;5.444;2023-04-29T00:02:37;13.30;71.30
68719;DHT22;55696;52.138;5.444;2023-04-29T00:05:04;13.70;71.50
68719;DHT22;55696;52.138;5.444;2023-04-29T00:07:32;13.40;72.60
68719;DHT22;55696;52.138;5.444;2023-04-29T00:09:59;13.30;71.40
68719;DHT22;55696;52.138;5.444;2023-04-29T00:12:26;13.40;71.60
68719;DHT22;55696;52.138;5.444;2023-04-29T00:14:54;13.30;71.40
68719;DHT22;55696;52.138;5.444;2023-04-29T00:17:20;13.30;71.50
68719;DHT22;55696;52.138;5.444;2023-04-29T00:19:47;13.40;71.50
68719;DHT22;55696;52.138;5.444;2023-04-29T00:22:14;13.40;71.30
68719;DHT22;55696;52.138;5.444;2023-04-29T00:24:41;13.50;71.10
68719;DHT22;55696;52.138;5.444;2023-04-29T00:27:07;13.40;71.20
68719;DHT22;55696;52.138;5.444;2023-04-29T00:29:34;13.50;71.10
68719;DHT22;55696;52.138;5.444;2023-04-29T00:32:01;13.50;71.00
68719;DHT22;55696;52.138;5.444;2023-04-29T00:34:29;13.70;70.90
68719;DHT22;55696;52.138;5.444;2023-04-29T00:36:55;13.50;70.90
68719;DHT22;55696;52.138;5.444;2023-04-29T00:39:22;14.10;71.20
68719;DHT22;55696;52.138;5.444;2023-04-29T00:41:49;14.30;71.30
68719;DHT22;55696;52.138;5.444;2023-04-29T00:44:16;13.50;70.90
68719;DHT22;55696;52.138;5.444;2023-04-29T00:46:43;13.60;70.60
68719;DHT22;55696;52.138;5.444;2023-04-29T00:49:12;13.60;71.40
68719;DHT22;55696;52.138;5.444;2023-04-29T00:51:41;13.60;72.90
68719;DHT22;55696;52.138;5.444;2023-04-29T00:54:08;13.60;71.00
68719;DHT22;55696;52.138;5.444;2023-04-29T00:56:36;13.50;71.60
68719;DHT22;55696;52.138;5.444;2023-04-29T00:59:05;13.50;71.20
68719;DHT22;55696;52.138;5.444;2023-04-29T01:01:32;13.50;71.50
68719;DHT22;55696;52.138;5.444;2023-04-29T01:04:01;13.40;70.90
68719;DHT22;55696;52.138;5.444;2023-04-29T01:06:54;13.50;71.40
68719;DHT22;55696;52.138;5.444;2023-04-29T01:15:08;13.40;72.50
68719;DHT22;55696;52.138;5.444;2023-04-29T01:17:58;13.30;72.90
68719;DHT22;55696;52.138;5.444;2023-04-29T01:20:27;13.20;73.60
68719;DHT22;55696;52.138;5.444;2023-04-29T01:22:54;13.20;72.20
68719;DHT22;55696;52.138;5.444;2023-04-29T01:25:21;13.20;71.30
68719;DHT22;55696;52.138;5.444;2023-04-29T01:31:18;13.30;73.40
68719;DHT22;55696;52.138;5.444;2023-04-29T01:34:33;13.10;73.50
68719;DHT22;55696;52.138;5.444;2023-04-29T01:39:37;12.90;73.50
68719;DHT22;55696;52.138;5.444;2023-04-29T01:44:40;13.10;73.70
68719;DHT22;55696;52.138;5.444;2023-04-29T01:47:09;12.90;72.70
68719;DHT22;55696;52.138;5.444;2023-04-29T01:49:43;13.00;73.20
68719;DHT22;55696;52.138;5.444;2023-04-29T01:52:12;13.00;71.90
68719;DHT22;55696;52.138;5.444;2023-04-29T01:54:42;13.10;72.10
68719;DHT22;55696;52.138;5.444;2023-04-29T01:57:09;13.00;72.00
68719;DHT22;55696;52.138;5.444;2023-04-29T01:59:48;13.00;71.80
68719;DHT22;55696;52.138;5.444;2023-04-29T02:02:34;13.10;71.90
68719;DHT22;55696;52.138;5.444;2023-04-29T02:05:14;13.10;71.80
68719;DHT22;55696;52.138;5.444;2023-04-29T02:07:48;13.30;71.60
68719;DHT22;55696;52.138;5.444;2023-04-29T02:10:15;13.20;71.30
68719;DHT22;55696;52.138;5.444;2023-04-29T02:12:44;13.40;71.20
68719;DHT22;55696;52.138;5.444;2023-04-29T02:15:12;13.30;71.20
68719;DHT22;55696;52.138;5.444;2023-04-29T02:17:39;13.40;71.20
68719;DHT22;55696;52.138;5.444;2023-04-29T02:20:06;13.40;71.20
68719;DHT22;55696;52.138;5.444;2023-04-29T02:22:34;13.50;71.70
68719;DHT22;55696;52.138;5.444;2023-04-29T02:25:01;13.50;71.20
68719;DHT22;55696;52.138;5.444;2023-04-29T02:27:30;13.60;71.90
68719;DHT22;55696;52.138;5.444;2023-04-29T02:29:57;13.40;70.70
68719;DHT22;55696;52.138;5.444;2023-04-29T02:32:24;13.40;70.90
68719;DHT22;55696;52.138;5.444;2023-04-29T02:34:51;13.30;70.80
68719;DHT22;55696;52.138;5.444;2023-04-29T02:37:18;13.30;70.90
68719;DHT22;55696;52.138;5.444;2023-04-29T02:39:45;13.30;70.90
68719;DHT22;55696;52.138;5.444;2023-04-29T02:42:12;13.30;71.00
68719;DHT22;55696;52.138;5.444;2023-04-29T02:44:39;13.30;70.90
68719;DHT22;55696;52.138;5.444;2023-04-29T02:47:07;13.20;71.00
68719;DHT22;55696;52.138;5.444;2023-04-29T02:49:34;13.30;70.90
68719;DHT22;55696;52.138;5.444;2023-04-29T02:52:01;13.20;70.80
68719;DHT22;55696;52.138;5.444;2023-04-29T02:54:28;13.70;71.00
68719;DHT22;55696;52.138;5.444;2023-04-29T02:56:55;13.20;71.10
68719;DHT22;55696;52.138;5.444;2023-04-29T02:59:21;13.20;70.80
68719;DHT22;55696;52.138;5.444;2023-04-29T03:01:48;13.20;70.80
68719;DHT22;55696;52.138;5.444;2023-04-29T03:04:15;13.10;70.80
68719;DHT22;55696;52.138;5.444;2023-04-29T03:06:42;13.10;71.00
68719;DHT22;55696;52.138;5.444;2023-04-29T03:09:11;13.10;70.90
68719;DHT22;55696;52.138;5.444;2023-04-29T03:11:38;13.10;71.70
68719;DHT22;55696;52.138;5.444;2023-04-29T03:14:05;13.00;71.00
68719;DHT22;55696;52.138;5.444;2023-04-29T03:16:32;13.00;71.10
68719;DHT22;55696;52.138;5.444;2023-04-29T03:19:00;13.00;71.10
68719;DHT22;55696;52.138;5.444;2023-04-29T03:21:27;13.10;71.20
68719;DHT22;55696;52.138;5.444;2023-04-29T03:23:55;13.70;71.50
68719;DHT22;55696;52.138;5.444;2023-04-29T03:26:28;13.00;71.30
68719;DHT22;55696;52.138;5.444;2023-04-29T03:28:55;12.90;70.90
68719;DHT22;55696;52.138;5.444;2023-04-29T03:31:25;13.00;71.00
68719;DHT22;55696;52.138;5.444;2023-04-29T03:33:53;12.90;70.90
68719;DHT22;55696;52.138;5.444;2023-04-29T03:36:20;13.00;70.90
68719;DHT22;55696;52.138;5.444;2023-04-29T03:38:58;13.10;70.80
68719;DHT22;55696;52.138;5.444;2023-04-29T03:41:25;13.00;70.60
68719;DHT22;55696;52.138;5.444;2023-04-29T03:43:52;13.00;70.50
68719;DHT22;55696;52.138;5.444;2023-04-29T03:46:20;13.00;70.70
68719;DHT22;55696;52.138;5.444;2023-04-29T03:48:47;13.10;70.30
68719;DHT22;55696;52.138;5.444;2023-04-29T03:51:14;13.00;70.20
68719;DHT22;55696;52.138;5.444;2023-04-29T03:53:40;13.00;70.20
68719;DHT22;55696;52.138;5.444;2023-04-29T03:56:07;13.00;70.10
68719;DHT22;55696;52.138;5.444;2023-04-29T03:58:35;13.00;70.00
68719;DHT22;55696;52.138;5.444;2023-04-29T04:01:02;13.00;70.00
68719;DHT22;55696;52.138;5.444;2023-04-29T04:03:36;13.70;70.50
68719;DHT22;55696;52.138;5.444;2023-04-29T04:06:03;13.00;70.00
68719;DHT22;55696;52.138;5.444;2023-04-29T04:08:30;12.90;69.80
68719;DHT22;55696;52.138;5.444;2023-04-29T04:11:06;13.80;70.20
68719;DHT22;55696;52.138;5.444;2023-04-29T04:13:36;13.00;69.50
68719;DHT22;55696;52.138;5.444;2023-04-29T04:16:03;13.00;69.40
68719;DHT22;55696;52.138;5.444;2023-04-29T04:18:30;13.00;69.80
68719;DHT22;55696;52.138;5.444;2023-04-29T04:21:03;13.00;69.20
68719;DHT22;55696;52.138;5.444;2023-04-29T04:23:30;12.90;69.10
68719;DHT22;55696;52.138;5.444;2023-04-29T04:25:57;12.80;69.40
68719;DHT22;55696;52.138;5.444;2023-04-29T04:28:49;12.90;69.20
68719;DHT22;55696;52.138;5.444;2023-04-29T04:31:25;12.90;69.30
68719;DHT22;55696;52.138;5.444;2023-04-29T04:33:51;12.90;69.20
68719;DHT22;55696;52.138;5.444;2023-04-29T04:36:18;12.90;69.30
68719;DHT22;55696;52.138;5.444;2023-04-29T04:38:46;13.00;69.30
68719;DHT22;55696;52.138;5.444;2023-04-29T04:41:13;13.00;69.20
68719;DHT22;55696;52.138;5.444;2023-04-29T04:43:42;13.00;69.30
68719;DHT22;55696;52.138;5.444;2023-04-29T04:46:22;13.00;69.10
68719;DHT22;55696;52.138;5.444;2023-04-29T04:49:07;13.00;69.10
68719;DHT22;55696;52.138;5.444;2023-04-29T04:51:43;13.00;69.10
68719;DHT22;55696;52.138;5.444;2023-04-29T04:54:10;13.40;70.90
68719;DHT22;55696;52.138;5.444;2023-04-29T04:56:37;14.00;69.50
68719;DHT22;55696;52.138;5.444;2023-04-29T04:59:06;13.10;68.90
68719;DHT22;55696;52.138;5.444;2023-04-29T05:01:35;13.20;68.90
68719;DHT22;55696;52.138;5.444;2023-04-29T05:04:02;13.10;68.70
68719;DHT22;55696;52.138;5.444;2023-04-29T05:06:30;13.20;68.90
68719;DHT22;55696;52.138;5.444;2023-04-29T05:08:56;13.20;68.70
68719;DHT22;55696;52.138;5.444;2023-04-29T05:11:24;13.20;68.70
68719;DHT22;55696;52.138;5.444;2023-04-29T05:14:06;13.20;68.80
68719;DHT22;55696;52.138;5.444;2023-04-29T05:16:33;13.80;69.10
68719;DHT22;55696;52.138;5.444;2023-04-29T05:19:00;13.30;68.90
68719;DHT22;55696;52.138;5.444;2023-04-29T05:21:31;13.30;68.70
68719;DHT22;55696;52.138;5.444;2023-04-29T05:23:58;13.40;68.90
68719;DHT22;55696;52.138;5.444;2023-04-29T05:26:25;13.50;68.60
68719;DHT22;55696;52.138;5.444;2023-04-29T05:28:55;14.50;68.80
68719;DHT22;55696;52.138;5.444;2023-04-29T05:31:23;13.50;68.20
68719;DHT22;55696;52.138;5.444;2023-04-29T05:33:50;13.60;68.40
68719;DHT22;55696;52.138;5.444;2023-04-29T05:36:16;13.50;68.30
68719;DHT22;55696;52.138;5.444;2023-04-29T05:38:43;13.60;68.30
68719;DHT22;55696;52.138;5.444;2023-04-29T05:41:11;13.50;68.20
68719;DHT22;55696;52.138;5.444;2023-04-29T05:44:10;13.60;68.30
68719;DHT22;55696;52.138;5.444;2023-04-29T05:46:37;14.50;68.70
68719;DHT22;55696;52.138;5.444;2023-04-29T05:49:03;13.60;68.10
68719;DHT22;55696;52.138;5.444;2023-04-29T05:51:30;14.10;68.20
68719;DHT22;55696;52.138;5.444;2023-04-29T05:53:57;13.70;68.10
68719;DHT22;55696;52.138;5.444;2023-04-29T05:56:26;13.70;68.10
68719;DHT22;55696;52.138;5.444;2023-04-29T05:58:54;13.70;68.20
68719;DHT22;55696;52.138;5.444;2023-04-29T06:01:21;13.70;68.20
68719;DHT22;55696;52.138;5.444;2023-04-29T06:03:48;13.80;68.10
68719;DHT22;55696;52.138;5.444;2023-04-29T06:06:33;13.80;68.00
68719;DHT22;55696;52.138;5.444;2023-04-29T06:09:27;13.80;68.10
68719;DHT22;55696;52.138;5.444;2023-04-29T06:11:58;14.90;68.60
68719;DHT22;55696;52.138;5.444;2023-04-29T06:14:25;13.90;68.00
68719;DHT22;55696;52.138;5.444;2023-04-29T06:16:51;13.90;67.90
68719;DHT22;55696;52.138;5.444;2023-04-29T06:19:19;14.00;68.10
68719;DHT22;55696;52.138;5.444;2023-04-29T06:21:48;14.00;67.80
68719;DHT22;55696;52.138;5.444;2023-04-29T06:24:14;14.10;67.50
68719;DHT22;55696;52.138;5.444;2023-04-29T06:26:41;14.10;67.60
68719;DHT22;55696;52.138;5.444;2023-04-29T06:29:09;14.20;67.30
68719;DHT22;55696;52.138;5.444;2023-04-29T06:31:36;14.20;67.00
68719;DHT22;55696;52.138;5.444;2023-04-29T06:34:04;14.80;67.30
68719;DHT22;55696;52.138;5.444;2023-04-29T06:36:33;14.10;67.00
68719;DHT22;55696;52.138;5.444;2023-04-29T06:39:20;15.00;67.30
68719;DHT22;55696;52.138;5.444;2023-04-29T06:42:09;14.20;67.80
68719;DHT22;55696;52.138;5.444;2023-04-29T06:45:05;14.40;66.90
68719;DHT22;55696;52.138;5.444;2023-04-29T06:47:40;14.40;66.80
68719;DHT22;55696;52.138;5.444;2023-04-29T06:50:11;14.40;66.40
68719;DHT22;55696;52.138;5.444;2023-04-29T06:52:38;14.30;66.20
68719;DHT22;55696;52.138;5.444;2023-04-29T06:55:05;14.40;66.40
68719;DHT22;55696;52.138;5.444;2023-04-29T06:57:32;14.60;66.60
68719;DHT22;55696;52.138;5.444;2023-04-29T06:59:59;14.60;65.70
68719;DHT22;55696;52.138;5.444;2023-04-29T07:02:26;14.60;65.30
68719;DHT22;55696;52.138;5.444;2023-04-29T07:04:53;14.70;64.90
68719;DHT22;55696;52.138;5.444;2023-04-29T07:07:20;15.60;65.40
68719;DHT22;55696;52.138;5.444;2023-04-29T07:09:47;14.70;64.90
68719;DHT22;55696;52.138;5.444;2023-04-29T07:12:19;14.70;65.00
68719;DHT22;55696;52.138;5.444;2023-04-29T07:14:45;15.10;65.10
68719;DHT22;55696;52.138;5.444;2023-04-29T07:17:12;14.50;64.90
68719;DHT22;55696;52.138;5.444;2023-04-29T07:19:41;15.20;65.50
68719;DHT22;55696;52.138;5.444;2023-04-29T07:22:07;14.50;64.90
68719;DHT22;55696;52.138;5.444;2023-04-29T07:24:34;15.00;65.20
68719;DHT22;55696;52.138;5.444;2023-04-29T07:27:01;14.90;64.50
68719;DHT22;55696;52.138;5.444;2023-04-29T07:29:28;15.00;64.10
68719;DHT22;55696;52.138;5.444;2023-04-29T07:31:56;15.10;64.00
68719;DHT22;55696;52.138;5.444;2023-04-29T07:34:23;15.10;62.90
68719;DHT22;55696;52.138;5.444;2023-04-29T07:36:49;15.30;62.80
68719;DHT22;55696;52.138;5.444;2023-04-29T07:39:16;15.50;62.50
68719;DHT22;55696;52.138;5.444;2023-04-29T07:41:46;15.60;61.90
68719;DHT22;55696;52.138;5.444;2023-04-29T07:44:13;15.70;61.00
68719;DHT22;55696;52.138;5.444;2023-04-29T07:46:40;16.50;61.20
68719;DHT22;55696;52.138;5.444;2023-04-29T07:49:07;14.40;60.40
68719;DHT22;55696;52.138;5.444;2023-04-29T07:51:34;15.50;61.20
68719;DHT22;55696;52.138;5.444;2023-04-29T07:54:01;15.40;61.00
68719;DHT22;55696;52.138;5.444;2023-04-29T07:56:28;15.20;60.80
68719;DHT22;55696;52.138;5.444;2023-04-29T07:58:55;15.30;61.50
68719;DHT22;55696;52.138;5.444;2023-04-29T08:01:22;14.90;61.80
68719;DHT22;55696;52.138;5.444;2023-04-29T08:03:48;14.70;61.70
68719;DHT22;55696;52.138;5.444;2023-04-29T08:06:17;14.80;62.20
68719;DHT22;55696;52.138;5.444;2023-04-29T08:08:48;14.90;62.10
68719;DHT22;55696;52.138;5.444;2023-04-29T08:11:18;15.90;62.80
68719;DHT22;55696;52.138;5.444;2023-04-29T08:13:45;15.10;61.60
68719;DHT22;55696;52.138;5.444;2023-04-29T08:16:12;15.20;61.20
68719;DHT22;55696;52.138;5.444;2023-04-29T08:18:39;15.20;59.70
68719;DHT22;55696;52.138;5.444;2023-04-29T08:21:07;15.70;59.10
68719;DHT22;55696;52.138;5.444;2023-04-29T08:23:34;15.40;59.30
68719;DHT22;55696;52.138;5.444;2023-04-29T08:26:01;15.60;58.80
68719;DHT22;55696;52.138;5.444;2023-04-29T08:28:28;16.00;58.40
68719;DHT22;55696;52.138;5.444;2023-04-29T08:30:55;16.10;57.80
68719;DHT22;55696;52.138;5.444;2023-04-29T08:33:22;16.20;57.20
68719;DHT22;55696;52.138;5.444;2023-04-29T08:35:57;16.10;57.60
68719;DHT22;55696;52.138;5.444;2023-04-29T08:38:24;16.00;59.40
68719;DHT22;55696;52.138;5.444;2023-04-29T08:40:51;15.90;57.00
68719;DHT22;55696;52.138;5.444;2023-04-29T08:43:19;15.80;57.20
68719;DHT22;55696;52.138;5.444;2023-04-29T08:45:47;15.80;58.40
68719;DHT22;55696;52.138;5.444;2023-04-29T08:48:17;16.50;59.30
68719;DHT22;55696;52.138;5.444;2023-04-29T08:50:44;15.60;59.70
68719;DHT22;55696;52.138;5.444;2023-04-29T08:53:13;15.70;58.40
68719;DHT22;55696;52.138;5.444;2023-04-29T08:55:46;15.80;59.10
68719;DHT22;55696;52.138;5.444;2023-04-29T08:58:14;15.90;59.70
68719;DHT22;55696;52.138;5.444;2023-04-29T09:00:43;16.40;58.40
68719;DHT22;55696;52.138;5.444;2023-04-29T09:03:26;17.80;57.80
68719;DHT22;55696;52.138;5.444;2023-04-29T09:05:54;17.20;56.30
68719;DHT22;55696;52.138;5.444;2023-04-29T09:08:22;17.20;56.30
68719;DHT22;55696;52.138;5.444;2023-04-29T09:10:53;17.10;56.00
68719;DHT22;55696;52.138;5.444;2023-04-29T09:13:30;18.20;57.40
68719;DHT22;55696;52.138;5.444;2023-04-29T09:15:57;17.50;55.30
68719;DHT22;55696;52.138;5.444;2023-04-29T09:21:24;17.40;55.50
68719;DHT22;55696;52.138;5.444;2023-04-29T09:23:56;17.40;54.20
68719;DHT22;55696;52.138;5.444;2023-04-29T09:26:24;17.10;56.00
68719;DHT22;55696;52.138;5.444;2023-04-29T09:29:11;17.10;54.60
68719;DHT22;55696;52.138;5.444;2023-04-29T09:31:44;17.00;55.80
68719;DHT22;55696;52.138;5.444;2023-04-29T09:34:11;16.70;53.70
68719;DHT22;55696;52.138;5.444;2023-04-29T09:36:49;16.50;53.80
68719;DHT22;55696;52.138;5.444;2023-04-29T09:39:21;16.40;56.70
68719;DHT22;55696;52.138;5.444;2023-04-29T09:44:19;16.50;56.60
68719;DHT22;55696;52.138;5.444;2023-04-29T09:46:58;16.60;55.80
68719;DHT22;55696;52.138;5.444;2023-04-29T09:49:33;16.70;56.60
68719;DHT22;55696;52.138;5.444;2023-04-29T09:52:09;16.90;56.30
68719;DHT22;55696;52.138;5.444;2023-04-29T09:54:38;17.20;54.40
68719;DHT22;55696;52.138;5.444;2023-04-29T09:57:06;17.30;54.30
68719;DHT22;55696;52.138;5.444;2023-04-29T09:59:35;17.30;54.40
68719;DHT22;55696;52.138;5.444;2023-04-29T10:02:16;17.40;53.90
68719;DHT22;55696;52.138;5.444;2023-04-29T10:04:46;17.10;54.50
68719;DHT22;55696;52.138;5.444;2023-04-29T10:07:14;16.90;54.10
68719;DHT22;55696;52.138;5.444;2023-04-29T10:09:44;16.90;54.20
68719;DHT22;55696;52.138;5.444;2023-04-29T10:12:18;16.80;53.90
68719;DHT22;55696;52.138;5.444;2023-04-29T10:15:16;16.80;54.20
68719;DHT22;55696;52.138;5.444;2023-04-29T10:18:13;16.80;55.40
68719;DHT22;55696;52.138;5.444;2023-04-29T10:20:46;16.90;55.60
68719;DHT22;55696;52.138;5.444;2023-04-29T10:23:14;16.90;54.40
68719;DHT22;55696;52.138;5.444;2023-04-29T10:25:43;17.20;54.00
68719;DHT22;55696;52.138;5.444;2023-04-29T10:28:14;17.60;54.30
68719;DHT22;55696;52.138;5.444;2023-04-29T10:30:49;18.50;54.40
68719;DHT22;55696;52.138;5.444;2023-04-29T10:33:17;18.10;53.10
68719;DHT22;55696;52.138;5.444;2023-04-29T10:35:45;18.40;51.20
68719;DHT22;55696;52.138;5.444;2023-04-29T10:38:21;18.20;50.30
68719;DHT22;55696;52.138;5.444;2023-04-29T10:40:50;18.30;51.20
68719;DHT22;55696;52.138;5.444;2023-04-29T10:43:22;18.30;50.50
68719;DHT22;55696;52.138;5.444;2023-04-29T10:48:43;17.90;51.10
68719;DHT22;55696;52.138;5.444;2023-04-29T10:51:10;17.60;50.10
68719;DHT22;55696;52.138;5.444;2023-04-29T10:54:17;17.50;49.80
68719;DHT22;55696;52.138;5.444;2023-04-29T10:56:50;17.60;52.20
68719;DHT22;55696;52.138;5.444;2023-04-29T10:59:43;18.30;52.10
68719;DHT22;55696;52.138;5.444;2023-04-29T11:02:11;18.20;51.40
68719;DHT22;55696;52.138;5.444;2023-04-29T11:05:08;18.40;50.30
68719;DHT22;55696;52.138;5.444;2023-04-29T11:07:36;18.60;50.10
68719;DHT22;55696;52.138;5.444;2023-04-29T11:10:03;19.30;47.10
68719;DHT22;55696;52.138;5.444;2023-04-29T11:12:30;18.90;46.50
68719;DHT22;55696;52.138;5.444;2023-04-29T11:14:57;18.90;46.90
68719;DHT22;55696;52.138;5.444;2023-04-29T11:17:36;19.30;47.00
68719;DHT22;55696;52.138;5.444;2023-04-29T11:20:10;19.70;48.30
68719;DHT22;55696;52.138;5.444;2023-04-29T11:22:39;19.30;48.10
68719;DHT22;55696;52.138;5.444;2023-04-29T11:25:06;19.20;47.40
68719;DHT22;55696;52.138;5.444;2023-04-29T11:27:36;19.50;47.30
68719;DHT22;55696;52.138;5.444;2023-04-29T11:30:05;19.50;46.60
68719;DHT22;55696;52.138;5.444;2023-04-29T11:32:38;19.80;46.20
68719;DHT22;55696;52.138;5.444;2023-04-29T11:35:16;20.10;45.90
68719;DHT22;55696;52.138;5.444;2023-04-29T11:37:45;20.30;44.50
68719;DHT22;55696;52.138;5.444;2023-04-29T11:40:13;19.90;44.50
68719;DHT22;55696;52.138;5.444;2023-04-29T11:42:42;19.70;44.90
68719;DHT22;55696;52.138;5.444;2023-04-29T11:45:10;20.10;45.40
68719;DHT22;55696;52.138;5.444;2023-04-29T11:47:42;19.30;45.80
68719;DHT22;55696;52.138;5.444;2023-04-29T11:50:11;20.00;47.40
68719;DHT22;55696;52.138;5.444;2023-04-29T11:52:38;19.50;46.20
68719;DHT22;55696;52.138;5.444;2023-04-29T11:55:09;19.90;45.50
68719;DHT22;55696;52.138;5.444;2023-04-29T11:57:37;20.10;44.70
68719;DHT22;55696;52.138;5.444;2023-04-29T12:00:12;21.00;44.20
68719;DHT22;55696;52.138;5.444;2023-04-29T12:02:44;20.40;44.00
68719;DHT22;55696;52.138;5.444;2023-04-29T12:05:14;20.30;42.90
68719;DHT22;55696;52.138;5.444;2023-04-29T12:07:43;20.80;43.00
68719;DHT22;55696;52.138;5.444;2023-04-29T12:10:10;20.40;42.40
68719;DHT22;55696;52.138;5.444;2023-04-29T12:12:38;20.50;43.40
68719;DHT22;55696;52.138;5.444;2023-04-29T12:15:12;21.00;43.00
68719;DHT22;55696;52.138;5.444;2023-04-29T12:17:40;20.70;41.80
68719;DHT22;55696;52.138;5.444;2023-04-29T12:20:08;20.70;42.40
68719;DHT22;55696;52.138;5.444;2023-04-29T12:22:36;20.70;42.30
68719;DHT22;55696;52.138;5.444;2023-04-29T12:25:03;20.90;42.00
68719;DHT22;55696;52.138;5.444;2023-04-29T12:27:31;21.10;41.50
68719;DHT22;55696;52.138;5.444;2023-04-29T12:29:59;21.10;41.10
68719;DHT22;55696;52.138;5.444;2023-04-29T12:32:26;20.90;41.70
68719;DHT22;55696;52.138;5.444;2023-04-29T12:34:54;20.80;41.90
68719;DHT22;55696;52.138;5.444;2023-04-29T12:37:21;20.60;42.60
68719;DHT22;55696;52.138;5.444;2023-04-29T12:39:53;20.60;42.30
68719;DHT22;55696;52.138;5.444;2023-04-29T12:42:20;20.90;42.70
68719;DHT22;55696;52.138;5.444;2023-04-29T12:44:47;21.30;42.10
68719;DHT22;55696;52.138;5.444;2023-04-29T12:47:15;21.70;41.20
68719;DHT22;55696;52.138;5.444;2023-04-29T12:49:46;22.10;41.00
68719;DHT22;55696;52.138;5.444;2023-04-29T12:52:13;22.10;40.90
68719;DHT22;55696;52.138;5.444;2023-04-29T12:54:40;22.20;40.30
68719;DHT22;55696;52.138;5.444;2023-04-29T12:57:10;21.80;40.90
68719;DHT22;55696;52.138;5.444;2023-04-29T12:59:37;21.90;41.10
68719;DHT22;55696;52.138;5.444;2023-04-29T13:02:04;22.00;40.60
68719;DHT22;55696;52.138;5.444;2023-04-29T13:04:31;22.00;40.00
68719;DHT22;55696;52.138;5.444;2023-04-29T13:06:58;21.90;40.30
68719;DHT22;55696;52.138;5.444;2023-04-29T13:09:29;22.20;40.60
68719;DHT22;55696;52.138;5.444;2023-04-29T13:11:56;22.30;40.40
68719;DHT22;55696;52.138;5.444;2023-04-29T13:14:25;22.20;39.60
68719;DHT22;55696;52.138;5.444;2023-04-29T13:16:52;22.40;40.10
68719;DHT22;55696;52.138;5.444;2023-04-29T13:19:19;22.60;39.20
68719;DHT22;55696;52.138;5.444;2023-04-29T13:22:06;22.60;39.10
68719;DHT22;55696;52.138;5.444;2023-04-29T13:24:33;22.60;38.60
68719;DHT22;55696;52.138;5.444;2023-04-29T13:27:01;22.80;39.40
68719;DHT22;55696;52.138;5.444;2023-04-29T13:29:31;21.80;39.70
68719;DHT22;55696;52.138;5.444;2023-04-29T13:31:58;21.60;40.20
68719;DHT22;55696;52.138;5.444;2023-04-29T13:34:24;21.10;40.20
68719;DHT22;55696;52.138;5.444;2023-04-29T13:36:51;21.00;41.10
68719;DHT22;55696;52.138;5.444;2023-04-29T13:39:18;21.50;41.20
68719;DHT22;55696;52.138;5.444;2023-04-29T13:41:46;22.30;40.20
68719;DHT22;55696;52.138;5.444;2023-04-29T13:44:13;22.60;39.20
68719;DHT22;55696;52.138;5.444;2023-04-29T13:46:56;22.60;38.10
68719;DHT22;55696;52.138;5.444;2023-04-29T13:49:23;22.20;38.20
68719;DHT22;55696;52.138;5.444;2023-04-29T13:52:10;21.40;38.80
68719;DHT22;55696;52.138;5.444;2023-04-29T13:54:57;21.30;40.60
68719;DHT22;55696;52.138;5.444;2023-04-29T13:57:44;21.90;41.30
68719;DHT22;55696;52.138;5.444;2023-04-29T14:00:14;21.60;40.10
68719;DHT22;55696;52.138;5.444;2023-04-29T14:03:01;22.10;39.80
68719;DHT22;55696;52.138;5.444;2023-04-29T14:05:29;22.40;39.80
68719;DHT22;55696;52.138;5.444;2023-04-29T14:07:56;22.40;38.90
68719;DHT22;55696;52.138;5.444;2023-04-29T14:10:22;22.30;38.70
68719;DHT22;55696;52.138;5.444;2023-04-29T14:12:49;23.10;38.80
68719;DHT22;55696;52.138;5.444;2023-04-29T14:15:16;23.00;38.60
68719;DHT22;55696;52.138;5.444;2023-04-29T14:17:43;22.70;37.90
68719;DHT22;55696;52.138;5.444;2023-04-29T14:20:10;22.80;38.00
68719;DHT22;55696;52.138;5.444;2023-04-29T14:22:37;23.00;37.70
68719;DHT22;55696;52.138;5.444;2023-04-29T14:25:04;23.20;37.50
68719;DHT22;55696;52.138;5.444;2023-04-29T14:27:31;23.30;37.20
68719;DHT22;55696;52.138;5.444;2023-04-29T14:30:00;23.20;37.10
68719;DHT22;55696;52.138;5.444;2023-04-29T14:32:26;23.40;37.20
68719;DHT22;55696;52.138;5.444;2023-04-29T14:34:53;23.50;36.80
68719;DHT22;55696;52.138;5.444;2023-04-29T14:37:20;23.90;36.10
68719;DHT22;55696;52.138;5.444;2023-04-29T14:39:47;23.20;36.50
68719;DHT22;55696;52.138;5.444;2023-04-29T14:42:14;23.70;37.00
68719;DHT22;55696;52.138;5.444;2023-04-29T14:44:41;23.40;37.20
68719;DHT22;55696;52.138;5.444;2023-04-29T14:47:07;23.40;37.30
68719;DHT22;55696;52.138;5.444;2023-04-29T14:49:34;23.40;36.40
68719;DHT22;55696;52.138;5.444;2023-04-29T14:52:01;23.60;35.60
68719;DHT22;55696;52.138;5.444;2023-04-29T14:54:28;23.60;35.50
68719;DHT22;55696;52.138;5.444;2023-04-29T14:56:55;23.50;35.10
68719;DHT22;55696;52.138;5.444;2023-04-29T14:59:22;23.30;35.00
68719;DHT22;55696;52.138;5.444;2023-04-29T15:01:49;23.20;34.30
68719;DHT22;55696;52.138;5.444;2023-04-29T15:04:16;23.00;34.60
68719;DHT22;55696;52.138;5.444;2023-04-29T15:06:42;22.90;35.10
68719;DHT22;55696;52.138;5.444;2023-04-29T15:09:09;23.00;35.70
68719;DHT22;55696;52.138;5.444;2023-04-29T15:11:36;23.00;35.50
68719;DHT22;55696;52.138;5.444;2023-04-29T15:14:03;23.30;35.50
68719;DHT22;55696;52.138;5.444;2023-04-29T15:16:30;23.80;35.40
68719;DHT22;55696;52.138;5.444;2023-04-29T15:18:57;23.20;35.10
68719;DHT22;55696;52.138;5.444;2023-04-29T15:21:24;23.00;35.30
68719;DHT22;55696;52.138;5.444;2023-04-29T15:23:52;23.00;35.50
68719;DHT22;55696;52.138;5.444;2023-04-29T15:26:19;23.10;35.30
68719;DHT22;55696;52.138;5.444;2023-04-29T15:28:47;22.90;35.20
68719;DHT22;55696;52.138;5.444;2023-04-29T15:31:14;22.80;35.60
68719;DHT22;55696;52.138;5.444;2023-04-29T15:33:41;23.50;36.00
68719;DHT22;55696;52.138;5.444;2023-04-29T15:36:07;23.10;36.10
68719;DHT22;55696;52.138;5.444;2023-04-29T15:38:34;23.20;35.30
68719;DHT22;55696;52.138;5.444;2023-04-29T15:41:01;23.10;35.40
68719;DHT22;55696;52.138;5.444;2023-04-29T15:43:29;23.20;35.20
68719;DHT22;55696;52.138;5.444;2023-04-29T15:45:58;23.20;35.20
68719;DHT22;55696;52.138;5.444;2023-04-29T15:48:25;23.20;35.00
68719;DHT22;55696;52.138;5.444;2023-04-29T15:50:52;23.30;35.50
68719;DHT22;55696;52.138;5.444;2023-04-29T15:53:19;23.20;35.20
68719;DHT22;55696;52.138;5.444;2023-04-29T15:55:46;23.20;35.20
68719;DHT22;55696;52.138;5.444;2023-04-29T15:58:13;23.20;35.70
68719;DHT22;55696;52.138;5.444;2023-04-29T16:00:40;23.60;35.10
68719;DHT22;55696;52.138;5.444;2023-04-29T16:03:07;23.40;34.90
68719;DHT22;55696;52.138;5.444;2023-04-29T16:05:33;23.50;34.80
68719;DHT22;55696;52.138;5.444;2023-04-29T16:08:02;23.60;34.90